sensor_id;sensor_type;location;lat;lon;timestamp;P1;durP1;ratioP1;P2;durP2;ratioP2
16228;SDS011;8222;51.462;12.630;2023-02-15T00:01:53;29.27;;;21.85;;
16228;SDS011;8222;51.462;12.630;2023-02-15T00:04:21;27.80;;;19.80;;
16228;SDS011;8222;51.462;12.630;2023-02-15T00:07:10;25.97;;;17.57;;
16228;SDS011;8222;51.462;12.630;2023-02-15T00:09:36;30.17;;;20.98;;
16228;SDS011;8222;51.462;12.630;2023-02-15T00:12:01;28.13;;;20.90;;
16228;SDS011;8222;51.462;12.630;2023-02-15T00:14:27;27.52;;;20.30;;
16228;SDS011;8222;51.462;12.630;2023-02-15T00:16:53;28.00;;;20.63;;
16228;SDS011;8222;51.462;12.630;2023-02-15T00:19:20;20.83;;;15.03;;
16228;SDS011;8222;51.462;12.630;2023-02-15T00:21:47;28.42;;;20.55;;
16228;SDS011;8222;51.462;12.630;2023-02-15T00:24:15;26.35;;;20.05;;
16228;SDS011;8222;51.462;12.630;2023-02-15T00:26:43;26.58;;;20.35;;
16228;SDS011;8222;51.462;12.630;2023-02-15T00:29:10;29.35;;;21.58;;
16228;SDS011;8222;51.462;12.630;2023-02-15T00:31:36;25.00;;;19.30;;
16228;SDS011;8222;51.462;12.630;2023-02-15T00:34:07;24.95;;;18.27;;
16228;SDS011;8222;51.462;12.630;2023-02-15T00:36:36;26.25;;;18.35;;
16228;SDS011;8222;51.462;12.630;2023-02-15T00:39:02;28.65;;;20.58;;
16228;SDS011;8222;51.462;12.630;2023-02-15T00:41:29;27.70;;;20.65;;
16228;SDS011;8222;51.462;12.630;2023-02-15T00:43:56;30.00;;;19.27;;
16228;SDS011;8222;51.462;12.630;2023-02-15T00:46:24;29.30;;;21.67;;
16228;SDS011;8222;51.462;12.630;2023-02-15T00:48:49;30.07;;;21.13;;
16228;SDS011;8222;51.462;12.630;2023-02-15T00:51:15;31.25;;;22.17;;
16228;SDS011;8222;51.462;12.630;2023-02-15T00:53:43;29.63;;;21.90;;
16228;SDS011;8222;51.462;12.630;2023-02-15T00:56:09;29.48;;;21.88;;
16228;SDS011;8222;51.462;12.630;2023-02-15T00:58:35;30.70;;;21.02;;
16228;SDS011;8222;51.462;12.630;2023-02-15T01:01:04;31.13;;;22.60;;
16228;SDS011;8222;51.462;12.630;2023-02-15T01:03:31;29.20;;;21.60;;
16228;SDS011;8222;51.462;12.630;2023-02-15T01:05:57;27.40;;;20.80;;
16228;SDS011;8222;51.462;12.630;2023-02-15T01:08:23;31.30;;;21.57;;
16228;SDS011;8222;51.462;12.630;2023-02-15T01:10:48;31.70;;;21.52;;
16228;SDS011;8222;51.462;12.630;2023-02-15T01:13:14;31.50;;;22.92;;
16228;SDS011;8222;51.462;12.630;2023-02-15T01:15:42;33.42;;;23.92;;
16228;SDS011;8222;51.462;12.630;2023-02-15T01:18:09;29.88;;;22.27;;
16228;SDS011;8222;51.462;12.630;2023-02-15T01:20:36;30.65;;;21.08;;
16228;SDS011;8222;51.462;12.630;2023-02-15T01:23:04;31.27;;;21.65;;
16228;SDS011;8222;51.462;12.630;2023-02-15T01:25:30;33.65;;;23.40;;
16228;SDS011;8222;51.462;12.630;2023-02-15T01:27:57;31.03;;;22.90;;
16228;SDS011;8222;51.462;12.630;2023-02-15T01:30:23;33.77;;;24.63;;
16228;SDS011;8222;51.462;12.630;2023-02-15T01:32:49;31.38;;;22.92;;
16228;SDS011;8222;51.462;12.630;2023-02-15T01:35:14;30.77;;;22.70;;
16228;SDS011;8222;51.462;12.630;2023-02-15T01:37:40;35.60;;;23.60;;
16228;SDS011;8222;51.462;12.630;2023-02-15T01:40:06;30.07;;;19.83;;
16228;SDS011;8222;51.462;12.630;2023-02-15T01:42:36;32.83;;;22.42;;
16228;SDS011;8222;51.462;12.630;2023-02-15T01:45:14;32.57;;;23.80;;
16228;SDS011;8222;51.462;12.630;2023-02-15T01:50:31;31.85;;;24.38;;
16228;SDS011;8222;51.462;12.630;2023-02-15T01:53:01;30.45;;;22.45;;
16228;SDS011;8222;51.462;12.630;2023-02-15T01:58:21;31.98;;;23.65;;
16228;SDS011;8222;51.462;12.630;2023-02-15T02:00:47;32.28;;;23.08;;
16228;SDS011;8222;51.462;12.630;2023-02-15T02:03:13;32.05;;;22.85;;
16228;SDS011;8222;51.462;12.630;2023-02-15T02:05:41;32.92;;;23.80;;
16228;SDS011;8222;51.462;12.630;2023-02-15T02:08:07;28.77;;;21.73;;
16228;SDS011;8222;51.462;12.630;2023-02-15T02:10:34;28.60;;;21.10;;
16228;SDS011;8222;51.462;12.630;2023-02-15T02:13:01;29.92;;;22.13;;
16228;SDS011;8222;51.462;12.630;2023-02-15T02:15:53;30.55;;;21.60;;
16228;SDS011;8222;51.462;12.630;2023-02-15T02:18:42;30.08;;;22.00;;
16228;SDS011;8222;51.462;12.630;2023-02-15T02:26:43;28.58;;;20.63;;
16228;SDS011;8222;51.462;12.630;2023-02-15T02:35:14;32.63;;;22.70;;
16228;SDS011;8222;51.462;12.630;2023-02-15T02:46:13;29.63;;;20.35;;
16228;SDS011;8222;51.462;12.630;2023-02-15T02:48:49;28.48;;;21.67;;
16228;SDS011;8222;51.462;12.630;2023-02-15T02:51:15;30.20;;;20.77;;
16228;SDS011;8222;51.462;12.630;2023-02-15T02:53:46;28.65;;;20.58;;
16228;SDS011;8222;51.462;12.630;2023-02-15T02:56:19;27.27;;;18.70;;
16228;SDS011;8222;51.462;12.630;2023-02-15T02:58:51;32.72;;;21.98;;
16228;SDS011;8222;51.462;12.630;2023-02-15T03:01:24;27.20;;;20.63;;
16228;SDS011;8222;51.462;12.630;2023-02-15T03:04:06;26.35;;;18.65;;
16228;SDS011;8222;51.462;12.630;2023-02-15T03:06:42;29.55;;;22.05;;
16228;SDS011;8222;51.462;12.630;2023-02-15T03:09:29;27.90;;;21.48;;
16228;SDS011;8222;51.462;12.630;2023-02-15T03:12:11;27.90;;;20.77;;
16228;SDS011;8222;51.462;12.630;2023-02-15T03:14:48;30.10;;;21.50;;
16228;SDS011;8222;51.462;12.630;2023-02-15T03:17:21;27.52;;;20.40;;
16228;SDS011;8222;51.462;12.630;2023-02-15T03:19:50;27.90;;;21.08;;
16228;SDS011;8222;51.462;12.630;2023-02-15T03:22:21;25.90;;;18.42;;
16228;SDS011;8222;51.462;12.630;2023-02-15T03:24:55;28.30;;;20.27;;
16228;SDS011;8222;51.462;12.630;2023-02-15T03:27:32;30.40;;;19.70;;
16228;SDS011;8222;51.462;12.630;2023-02-15T03:30:03;29.92;;;21.67;;
16228;SDS011;8222;51.462;12.630;2023-02-15T03:32:31;29.10;;;22.70;;
16228;SDS011;8222;51.462;12.630;2023-02-15T03:34:59;28.50;;;20.70;;
16228;SDS011;8222;51.462;12.630;2023-02-15T03:40:16;25.85;;;18.88;;
16228;SDS011;8222;51.462;12.630;2023-02-15T03:43:24;31.45;;;21.25;;
16228;SDS011;8222;51.462;12.630;2023-02-15T03:46:15;29.08;;;21.70;;
16228;SDS011;8222;51.462;12.630;2023-02-15T03:48:45;25.98;;;19.90;;
16228;SDS011;8222;51.462;12.630;2023-02-15T03:51:34;25.38;;;19.95;;
16228;SDS011;8222;51.462;12.630;2023-02-15T03:54:04;25.33;;;19.40;;
16228;SDS011;8222;51.462;12.630;2023-02-15T03:56:34;28.35;;;20.10;;
16228;SDS011;8222;51.462;12.630;2023-02-15T03:59:06;25.27;;;19.80;;
16228;SDS011;8222;51.462;12.630;2023-02-15T04:01:57;25.80;;;19.13;;
16228;SDS011;8222;51.462;12.630;2023-02-15T04:04:26;28.10;;;20.70;;
16228;SDS011;8222;51.462;12.630;2023-02-15T04:06:58;28.45;;;20.25;;
16228;SDS011;8222;51.462;12.630;2023-02-15T04:09:24;27.38;;;20.42;;
16228;SDS011;8222;51.462;12.630;2023-02-15T04:12:11;27.45;;;19.55;;
16228;SDS011;8222;51.462;12.630;2023-02-15T04:14:37;23.57;;;18.53;;
16228;SDS011;8222;51.462;12.630;2023-02-15T04:17:21;22.23;;;16.38;;
16228;SDS011;8222;51.462;12.630;2023-02-15T04:19:48;24.95;;;18.90;;
16228;SDS011;8222;51.462;12.630;2023-02-15T04:22:32;22.65;;;17.67;;
16228;SDS011;8222;51.462;12.630;2023-02-15T04:25:16;24.58;;;18.88;;
16228;SDS011;8222;51.462;12.630;2023-02-15T04:27:44;27.50;;;21.00;;
16228;SDS011;8222;51.462;12.630;2023-02-15T04:30:12;24.52;;;18.25;;
16228;SDS011;8222;51.462;12.630;2023-02-15T04:32:40;25.95;;;18.50;;
16228;SDS011;8222;51.462;12.630;2023-02-15T04:35:06;24.05;;;18.85;;
16228;SDS011;8222;51.462;12.630;2023-02-15T04:37:33;23.05;;;18.00;;
16228;SDS011;8222;51.462;12.630;2023-02-15T04:39:58;20.27;;;15.68;;
16228;SDS011;8222;51.462;12.630;2023-02-15T04:42:24;25.03;;;18.40;;
16228;SDS011;8222;51.462;12.630;2023-02-15T04:44:51;22.38;;;17.90;;
16228;SDS011;8222;51.462;12.630;2023-02-15T04:47:17;21.90;;;17.15;;
16228;SDS011;8222;51.462;12.630;2023-02-15T04:49:44;23.53;;;17.73;;
16228;SDS011;8222;51.462;12.630;2023-02-15T04:52:10;26.35;;;18.50;;
16228;SDS011;8222;51.462;12.630;2023-02-15T04:54:36;24.80;;;17.58;;
16228;SDS011;8222;51.462;12.630;2023-02-15T04:57:03;25.17;;;19.40;;
16228;SDS011;8222;51.462;12.630;2023-02-15T04:59:28;39.17;;;29.63;;
16228;SDS011;8222;51.462;12.630;2023-02-15T05:01:56;23.45;;;19.10;;
16228;SDS011;8222;51.462;12.630;2023-02-15T05:04:21;23.98;;;17.17;;
16228;SDS011;8222;51.462;12.630;2023-02-15T05:06:47;23.65;;;17.35;;
16228;SDS011;8222;51.462;12.630;2023-02-15T05:09:13;22.53;;;17.33;;
16228;SDS011;8222;51.462;12.630;2023-02-15T05:11:39;17.23;;;13.07;;
16228;SDS011;8222;51.462;12.630;2023-02-15T05:14:05;20.90;;;15.77;;
16228;SDS011;8222;51.462;12.630;2023-02-15T05:16:30;20.67;;;16.63;;
16228;SDS011;8222;51.462;12.630;2023-02-15T05:19:00;23.98;;;18.00;;
16228;SDS011;8222;51.462;12.630;2023-02-15T05:21:26;23.70;;;17.58;;
16228;SDS011;8222;51.462;12.630;2023-02-15T05:23:52;19.97;;;15.07;;
16228;SDS011;8222;51.462;12.630;2023-02-15T05:26:20;20.70;;;15.52;;
16228;SDS011;8222;51.462;12.630;2023-02-15T05:29:06;21.30;;;16.20;;
16228;SDS011;8222;51.462;12.630;2023-02-15T05:31:34;23.75;;;16.73;;
16228;SDS011;8222;51.462;12.630;2023-02-15T05:34:00;21.35;;;14.68;;
16228;SDS011;8222;51.462;12.630;2023-02-15T05:36:26;20.08;;;15.73;;
16228;SDS011;8222;51.462;12.630;2023-02-15T05:38:53;35.97;;;26.48;;
16228;SDS011;8222;51.462;12.630;2023-02-15T05:41:18;54.40;;;37.53;;
16228;SDS011;8222;51.462;12.630;2023-02-15T05:43:44;24.27;;;18.95;;
16228;SDS011;8222;51.462;12.630;2023-02-15T05:46:10;21.27;;;16.98;;
16228;SDS011;8222;51.462;12.630;2023-02-15T05:48:36;20.75;;;15.88;;
16228;SDS011;8222;51.462;12.630;2023-02-15T05:51:05;18.45;;;16.00;;
16228;SDS011;8222;51.462;12.630;2023-02-15T05:53:33;22.77;;;16.08;;
16228;SDS011;8222;51.462;12.630;2023-02-15T05:56:00;18.98;;;14.50;;
16228;SDS011;8222;51.462;12.630;2023-02-15T05:58:31;18.92;;;15.10;;
16228;SDS011;8222;51.462;12.630;2023-02-15T06:01:34;21.55;;;15.38;;
16228;SDS011;8222;51.462;12.630;2023-02-15T06:03:54;21.08;;;17.00;;
16228;SDS011;8222;51.462;12.630;2023-02-15T06:06:20;18.60;;;14.55;;
16228;SDS011;8222;51.462;12.630;2023-02-15T06:08:47;20.33;;;15.25;;
16228;SDS011;8222;51.462;12.630;2023-02-15T06:11:12;19.73;;;14.32;;
16228;SDS011;8222;51.462;12.630;2023-02-15T06:13:38;18.10;;;12.30;;
16228;SDS011;8222;51.462;12.630;2023-02-15T06:16:04;15.67;;;13.27;;
16228;SDS011;8222;51.462;12.630;2023-02-15T06:18:30;23.38;;;17.55;;
16228;SDS011;8222;51.462;12.630;2023-02-15T06:20:58;17.77;;;14.27;;
16228;SDS011;8222;51.462;12.630;2023-02-15T06:23:25;21.45;;;14.88;;
16228;SDS011;8222;51.462;12.630;2023-02-15T06:25:51;18.27;;;14.83;;
16228;SDS011;8222;51.462;12.630;2023-02-15T06:28:17;22.50;;;16.23;;
16228;SDS011;8222;51.462;12.630;2023-02-15T06:30:42;35.80;;;28.17;;
16228;SDS011;8222;51.462;12.630;2023-02-15T06:33:08;31.87;;;24.40;;
16228;SDS011;8222;51.462;12.630;2023-02-15T06:35:33;20.53;;;16.77;;
16228;SDS011;8222;51.462;12.630;2023-02-15T06:37:59;18.37;;;15.50;;
16228;SDS011;8222;51.462;12.630;2023-02-15T06:40:25;17.33;;;13.10;;
16228;SDS011;8222;51.462;12.630;2023-02-15T06:42:50;18.80;;;14.20;;
16228;SDS011;8222;51.462;12.630;2023-02-15T06:45:16;17.87;;;13.13;;
16228;SDS011;8222;51.462;12.630;2023-02-15T06:47:42;15.70;;;12.10;;
16228;SDS011;8222;51.462;12.630;2023-02-15T06:50:07;14.20;;;11.70;;
16228;SDS011;8222;51.462;12.630;2023-02-15T06:52:34;15.80;;;13.63;;
16228;SDS011;8222;51.462;12.630;2023-02-15T06:55:00;15.37;;;12.90;;
16228;SDS011;8222;51.462;12.630;2023-02-15T06:57:26;15.48;;;12.52;;
16228;SDS011;8222;51.462;12.630;2023-02-15T06:59:51;16.63;;;12.50;;
16228;SDS011;8222;51.462;12.630;2023-02-15T07:02:17;14.50;;;11.70;;
16228;SDS011;8222;51.462;12.630;2023-02-15T07:04:43;13.23;;;11.00;;
16228;SDS011;8222;51.462;12.630;2023-02-15T07:07:09;16.77;;;12.80;;
16228;SDS011;8222;51.462;12.630;2023-02-15T07:09:36;15.87;;;13.77;;
16228;SDS011;8222;51.462;12.630;2023-02-15T07:12:02;16.23;;;13.00;;
16228;SDS011;8222;51.462;12.630;2023-02-15T07:14:47;17.23;;;13.45;;
16228;SDS011;8222;51.462;12.630;2023-02-15T07:17:14;31.17;;;26.05;;
16228;SDS011;8222;51.462;12.630;2023-02-15T07:19:40;17.10;;;15.25;;
16228;SDS011;8222;51.462;12.630;2023-02-15T07:22:06;14.47;;;11.57;;
16228;SDS011;8222;51.462;12.630;2023-02-15T07:24:31;13.90;;;11.87;;
16228;SDS011;8222;51.462;12.630;2023-02-15T07:26:57;15.20;;;11.98;;
16228;SDS011;8222;51.462;12.630;2023-02-15T07:29:23;15.90;;;12.40;;
16228;SDS011;8222;51.462;12.630;2023-02-15T07:31:49;15.03;;;12.50;;
16228;SDS011;8222;51.462;12.630;2023-02-15T07:34:15;13.73;;;11.38;;
16228;SDS011;8222;51.462;12.630;2023-02-15T07:36:41;13.68;;;11.80;;
16228;SDS011;8222;51.462;12.630;2023-02-15T07:39:09;14.25;;;11.27;;
16228;SDS011;8222;51.462;12.630;2023-02-15T07:41:34;14.77;;;12.02;;
16228;SDS011;8222;51.462;12.630;2023-02-15T07:44:00;12.88;;;11.40;;
16228;SDS011;8222;51.462;12.630;2023-02-15T07:46:26;13.70;;;11.83;;
16228;SDS011;8222;51.462;12.630;2023-02-15T07:48:52;15.07;;;11.43;;
16228;SDS011;8222;51.462;12.630;2023-02-15T07:51:18;14.52;;;11.73;;
16228;SDS011;8222;51.462;12.630;2023-02-15T07:53:44;14.63;;;12.33;;
16228;SDS011;8222;51.462;12.630;2023-02-15T07:56:10;12.77;;;11.02;;
16228;SDS011;8222;51.462;12.630;2023-02-15T07:58:38;13.38;;;10.70;;
16228;SDS011;8222;51.462;12.630;2023-02-15T08:01:24;12.13;;;10.75;;
16228;SDS011;8222;51.462;12.630;2023-02-15T08:03:51;13.23;;;11.05;;
16228;SDS011;8222;51.462;12.630;2023-02-15T08:06:20;11.68;;;10.48;;
16228;SDS011;8222;51.462;12.630;2023-02-15T08:08:47;12.65;;;10.40;;
16228;SDS011;8222;51.462;12.630;2023-02-15T08:11:17;11.30;;;10.10;;
16228;SDS011;8222;51.462;12.630;2023-02-15T08:13:54;11.37;;;10.13;;
16228;SDS011;8222;51.462;12.630;2023-02-15T08:16:25;11.80;;;9.95;;
16228;SDS011;8222;51.462;12.630;2023-02-15T08:18:53;9.65;;;8.65;;
16228;SDS011;8222;51.462;12.630;2023-02-15T08:21:21;10.63;;;9.55;;
16228;SDS011;8222;51.462;12.630;2023-02-15T08:23:47;9.63;;;8.47;;
16228;SDS011;8222;51.462;12.630;2023-02-15T08:26:13;17.02;;;15.20;;
16228;SDS011;8222;51.462;12.630;2023-02-15T08:28:40;9.63;;;8.55;;
16228;SDS011;8222;51.462;12.630;2023-02-15T08:33:33;9.15;;;8.25;;
16228;SDS011;8222;51.462;12.630;2023-02-15T08:36:05;8.70;;;7.38;;
16228;SDS011;8222;51.462;12.630;2023-02-15T08:38:35;9.23;;;7.90;;
16228;SDS011;8222;51.462;12.630;2023-02-15T08:43:37;8.47;;;7.23;;
16228;SDS011;8222;51.462;12.630;2023-02-15T08:46:04;8.57;;;7.68;;
16228;SDS011;8222;51.462;12.630;2023-02-15T08:48:37;8.32;;;6.90;;
16228;SDS011;8222;51.462;12.630;2023-02-15T08:51:11;8.00;;;7.20;;
16228;SDS011;8222;51.462;12.630;2023-02-15T08:53:39;8.02;;;7.22;;
16228;SDS011;8222;51.462;12.630;2023-02-15T08:56:06;7.20;;;6.50;;
16228;SDS011;8222;51.462;12.630;2023-02-15T08:58:33;8.70;;;7.53;;
16228;SDS011;8222;51.462;12.630;2023-02-15T09:00:59;8.18;;;7.18;;
16228;SDS011;8222;51.462;12.630;2023-02-15T09:03:27;7.35;;;6.65;;
16228;SDS011;8222;51.462;12.630;2023-02-15T09:06:00;8.35;;;6.63;;
16228;SDS011;8222;51.462;12.630;2023-02-15T09:08:27;7.05;;;6.32;;
16228;SDS011;8222;51.462;12.630;2023-02-15T09:11:03;6.85;;;6.15;;
16228;SDS011;8222;51.462;12.630;2023-02-15T09:13:30;6.33;;;5.70;;
16228;SDS011;8222;51.462;12.630;2023-02-15T09:16:01;6.80;;;6.18;;
16228;SDS011;8222;51.462;12.630;2023-02-15T09:18:29;7.18;;;6.35;;
16228;SDS011;8222;51.462;12.630;2023-02-15T09:20:57;7.00;;;5.93;;
16228;SDS011;8222;51.462;12.630;2023-02-15T09:23:33;7.03;;;6.38;;
16228;SDS011;8222;51.462;12.630;2023-02-15T09:26:03;6.10;;;5.57;;
16228;SDS011;8222;51.462;12.630;2023-02-15T09:28:29;6.83;;;5.80;;
16228;SDS011;8222;51.462;12.630;2023-02-15T09:30:57;7.85;;;6.65;;
16228;SDS011;8222;51.462;12.630;2023-02-15T09:33:34;7.10;;;5.87;;
16228;SDS011;8222;51.462;12.630;2023-02-15T09:36:00;7.35;;;6.50;;
16228;SDS011;8222;51.462;12.630;2023-02-15T09:38:27;6.73;;;6.13;;
16228;SDS011;8222;51.462;12.630;2023-02-15T09:41:03;6.97;;;6.25;;
16228;SDS011;8222;51.462;12.630;2023-02-15T09:52:10;6.13;;;5.53;;
16228;SDS011;8222;51.462;12.630;2023-02-15T10:05:55;6.80;;;6.20;;
16228;SDS011;8222;51.462;12.630;2023-02-15T10:11:41;9.30;;;6.60;;
16228;SDS011;8222;51.462;12.630;2023-02-15T10:17:07;6.85;;;6.07;;
16228;SDS011;8222;51.462;12.630;2023-02-15T10:19:37;7.10;;;6.40;;
16228;SDS011;8222;51.462;12.630;2023-02-15T10:22:35;7.17;;;6.43;;
16228;SDS011;8222;51.462;12.630;2023-02-15T10:25:17;7.03;;;6.32;;
16228;SDS011;8222;51.462;12.630;2023-02-15T10:27:51;7.53;;;6.83;;
16228;SDS011;8222;51.462;12.630;2023-02-15T10:35:37;7.18;;;6.47;;
16228;SDS011;8222;51.462;12.630;2023-02-15T10:51:36;7.63;;;6.38;;
16228;SDS011;8222;51.462;12.630;2023-02-15T10:59:33;7.82;;;7.03;;
16228;SDS011;8222;51.462;12.630;2023-02-15T11:05:23;8.43;;;7.05;;
16228;SDS011;8222;51.462;12.630;2023-02-15T11:07:57;7.07;;;6.47;;
16228;SDS011;8222;51.462;12.630;2023-02-15T11:10:45;6.93;;;6.00;;
16228;SDS011;8222;51.462;12.630;2023-02-15T11:13:19;7.13;;;6.43;;
16228;SDS011;8222;51.462;12.630;2023-02-15T11:15:54;7.37;;;6.70;;
16228;SDS011;8222;51.462;12.630;2023-02-15T11:23:51;7.53;;;6.82;;
16228;SDS011;8222;51.462;12.630;2023-02-15T11:29:21;12.80;;;11.60;;
16228;SDS011;8222;51.462;12.630;2023-02-15T11:32:13;6.88;;;6.20;;
16228;SDS011;8222;51.462;12.630;2023-02-15T11:37:18;6.57;;;6.05;;
16228;SDS011;8222;51.462;12.630;2023-02-15T11:39:50;6.40;;;5.80;;
16228;SDS011;8222;51.462;12.630;2023-02-15T11:42:28;6.17;;;5.57;;
16228;SDS011;8222;51.462;12.630;2023-02-15T11:45:02;6.15;;;5.57;;
16228;SDS011;8222;51.462;12.630;2023-02-15T11:47:40;11.13;;;6.32;;
16228;SDS011;8222;51.462;12.630;2023-02-15T11:50:10;6.13;;;5.53;;
16228;SDS011;8222;51.462;12.630;2023-02-15T11:52:40;6.35;;;5.75;;
16228;SDS011;8222;51.462;12.630;2023-02-15T11:55:09;5.60;;;5.10;;
16228;SDS011;8222;51.462;12.630;2023-02-15T11:57:41;6.43;;;5.72;;
16228;SDS011;8222;51.462;12.630;2023-02-15T12:03:20;6.45;;;5.85;;
16228;SDS011;8222;51.462;12.630;2023-02-15T12:05:53;5.72;;;5.25;;
16228;SDS011;8222;51.462;12.630;2023-02-15T12:08:26;6.22;;;5.63;;
16228;SDS011;8222;51.462;12.630;2023-02-15T12:11:12;5.70;;;5.20;;
16228;SDS011;8222;51.462;12.630;2023-02-15T12:13:59;6.43;;;4.77;;
16228;SDS011;8222;51.462;12.630;2023-02-15T12:16:27;6.28;;;5.22;;
16228;SDS011;8222;51.462;12.630;2023-02-15T12:18:57;5.93;;;5.10;;
16228;SDS011;8222;51.462;12.630;2023-02-15T12:23:55;6.93;;;4.93;;
16228;SDS011;8222;51.462;12.630;2023-02-15T12:26:24;5.78;;;4.40;;
16228;SDS011;8222;51.462;12.630;2023-02-15T12:28:51;6.13;;;5.53;;
16228;SDS011;8222;51.462;12.630;2023-02-15T12:31:26;4.88;;;4.40;;
16228;SDS011;8222;51.462;12.630;2023-02-15T12:33:53;4.63;;;4.25;;
16228;SDS011;8222;51.462;12.630;2023-02-15T12:36:24;6.17;;;4.70;;
16228;SDS011;8222;51.462;12.630;2023-02-15T12:41:38;5.75;;;5.25;;
16228;SDS011;8222;51.462;12.630;2023-02-15T12:44:17;5.57;;;5.07;;
16228;SDS011;8222;51.462;12.630;2023-02-15T12:46:59;5.95;;;5.45;;
16228;SDS011;8222;51.462;12.630;2023-02-15T12:49:28;7.63;;;5.10;;
16228;SDS011;8222;51.462;12.630;2023-02-15T12:52:03;5.80;;;4.78;;
16228;SDS011;8222;51.462;12.630;2023-02-15T12:54:36;7.65;;;5.70;;
16228;SDS011;8222;51.462;12.630;2023-02-15T12:57:21;6.93;;;5.90;;
16228;SDS011;8222;51.462;12.630;2023-02-15T12:59:51;6.22;;;5.70;;
16228;SDS011;8222;51.462;12.630;2023-02-15T13:02:23;6.57;;;5.97;;
16228;SDS011;8222;51.462;12.630;2023-02-15T13:04:56;8.75;;;5.82;;
16228;SDS011;8222;51.462;12.630;2023-02-15T13:07:29;6.30;;;5.72;;
16228;SDS011;8222;51.462;12.630;2023-02-15T13:09:57;6.53;;;5.68;;
16228;SDS011;8222;51.462;12.630;2023-02-15T13:12:24;6.60;;;5.57;;
16228;SDS011;8222;51.462;12.630;2023-02-15T13:14:52;6.63;;;5.93;;
16228;SDS011;8222;51.462;12.630;2023-02-15T13:17:23;5.43;;;5.03;;
16228;SDS011;8222;51.462;12.630;2023-02-15T13:19:54;5.90;;;5.35;;
16228;SDS011;8222;51.462;12.630;2023-02-15T13:22:27;5.27;;;4.87;;
16228;SDS011;8222;51.462;12.630;2023-02-15T13:25:01;6.90;;;5.20;;
16228;SDS011;8222;51.462;12.630;2023-02-15T13:27:36;5.70;;;5.15;;
16228;SDS011;8222;51.462;12.630;2023-02-15T13:30:10;4.68;;;4.22;;
16228;SDS011;8222;51.462;12.630;2023-02-15T13:32:49;5.07;;;4.63;;
16228;SDS011;8222;51.462;12.630;2023-02-15T13:35:17;5.47;;;4.97;;
16228;SDS011;8222;51.462;12.630;2023-02-15T13:43:20;5.60;;;5.03;;
16228;SDS011;8222;51.462;12.630;2023-02-15T13:46:07;6.22;;;4.80;;
16228;SDS011;8222;51.462;12.630;2023-02-15T13:48:55;4.78;;;4.13;;
16228;SDS011;8222;51.462;12.630;2023-02-15T13:57:16;5.32;;;4.40;;
16228;SDS011;8222;51.462;12.630;2023-02-15T14:02:30;4.95;;;4.18;;
16228;SDS011;8222;51.462;12.630;2023-02-15T14:11:26;5.03;;;4.50;;
16228;SDS011;8222;51.462;12.630;2023-02-15T14:17:40;5.17;;;4.67;;
16228;SDS011;8222;51.462;12.630;2023-02-15T14:20:17;5.75;;;5.25;;
16228;SDS011;8222;51.462;12.630;2023-02-15T14:23:05;4.28;;;3.85;;
16228;SDS011;8222;51.462;12.630;2023-02-15T14:26:05;5.25;;;3.60;;
16228;SDS011;8222;51.462;12.630;2023-02-15T14:31:30;4.68;;;3.80;;
16228;SDS011;8222;51.462;12.630;2023-02-15T14:34:00;3.70;;;3.45;;
16228;SDS011;8222;51.462;12.630;2023-02-15T14:36:26;3.50;;;2.78;;
16228;SDS011;8222;51.462;12.630;2023-02-15T14:42:18;4.90;;;3.60;;
16228;SDS011;8222;51.462;12.630;2023-02-15T14:44:51;3.80;;;3.45;;
16228;SDS011;8222;51.462;12.630;2023-02-15T14:47:28;4.32;;;3.85;;
16228;SDS011;8222;51.462;12.630;2023-02-15T15:01:14;4.35;;;3.95;;
16228;SDS011;8222;51.462;12.630;2023-02-15T15:03:47;4.40;;;4.00;;
16228;SDS011;8222;51.462;12.630;2023-02-15T15:06:26;4.28;;;3.78;;
16228;SDS011;8222;51.462;12.630;2023-02-15T15:09:05;4.53;;;4.10;;
16228;SDS011;8222;51.462;12.630;2023-02-15T15:11:38;3.95;;;3.58;;
16228;SDS011;8222;51.462;12.630;2023-02-15T15:14:07;4.90;;;3.58;;
16228;SDS011;8222;51.462;12.630;2023-02-15T15:19:02;4.32;;;3.90;;
16228;SDS011;8222;51.462;12.630;2023-02-15T15:41:19;4.78;;;4.07;;
16228;SDS011;8222;51.462;12.630;2023-02-15T15:50:12;5.75;;;4.18;;
16228;SDS011;8222;51.462;12.630;2023-02-15T15:52:41;4.97;;;3.90;;
16228;SDS011;8222;51.462;12.630;2023-02-15T15:55:18;4.20;;;3.80;;
16228;SDS011;8222;51.462;12.630;2023-02-15T15:57:48;4.32;;;3.85;;
16228;SDS011;8222;51.462;12.630;2023-02-15T16:03:16;4.23;;;3.87;;
16228;SDS011;8222;51.462;12.630;2023-02-15T16:05:52;9.57;;;8.40;;
16228;SDS011;8222;51.462;12.630;2023-02-15T16:08:26;16.35;;;14.07;;
16228;SDS011;8222;51.462;12.630;2023-02-15T16:10:54;5.70;;;4.30;;
16228;SDS011;8222;51.462;12.630;2023-02-15T16:13:20;4.37;;;3.93;;
16228;SDS011;8222;51.462;12.630;2023-02-15T16:15:46;4.05;;;3.67;;
16228;SDS011;8222;51.462;12.630;2023-02-15T16:18:17;4.63;;;3.17;;
16228;SDS011;8222;51.462;12.630;2023-02-15T16:20:58;5.10;;;4.03;;
16228;SDS011;8222;51.462;12.630;2023-02-15T16:26:09;7.20;;;4.13;;
16228;SDS011;8222;51.462;12.630;2023-02-15T16:29:26;4.28;;;3.60;;
16228;SDS011;8222;51.462;12.630;2023-02-15T16:37:21;10.77;;;6.82;;
16228;SDS011;8222;51.462;12.630;2023-02-15T16:39:51;6.95;;;5.80;;
16228;SDS011;8222;51.462;12.630;2023-02-15T16:42:17;7.60;;;5.80;;
16228;SDS011;8222;51.462;12.630;2023-02-15T16:44:46;6.30;;;5.65;;
16228;SDS011;8222;51.462;12.630;2023-02-15T16:47:30;7.88;;;5.47;;
16228;SDS011;8222;51.462;12.630;2023-02-15T16:49:58;7.38;;;6.35;;
16228;SDS011;8222;51.462;12.630;2023-02-15T16:52:27;9.00;;;6.53;;
16228;SDS011;8222;51.462;12.630;2023-02-15T16:54:57;8.60;;;6.45;;
16228;SDS011;8222;51.462;12.630;2023-02-15T16:57:27;9.75;;;6.85;;
16228;SDS011;8222;51.462;12.630;2023-02-15T17:00:00;7.28;;;6.03;;
16228;SDS011;8222;51.462;12.630;2023-02-15T17:02:33;8.87;;;6.60;;
16228;SDS011;8222;51.462;12.630;2023-02-15T17:07:42;10.43;;;7.82;;
16228;SDS011;8222;51.462;12.630;2023-02-15T17:10:33;8.82;;;6.88;;
16228;SDS011;8222;51.462;12.630;2023-02-15T17:13:14;8.65;;;7.50;;
16228;SDS011;8222;51.462;12.630;2023-02-15T17:15:41;24.35;;;21.88;;
16228;SDS011;8222;51.462;12.630;2023-02-15T17:18:16;8.38;;;7.57;;
16228;SDS011;8222;51.462;12.630;2023-02-15T17:20:45;9.68;;;8.55;;
16228;SDS011;8222;51.462;12.630;2023-02-15T17:25:49;9.45;;;8.10;;
16228;SDS011;8222;51.462;12.630;2023-02-15T17:28:20;17.88;;;16.25;;
16228;SDS011;8222;51.462;12.630;2023-02-15T17:30:50;15.68;;;13.85;;
16228;SDS011;8222;51.462;12.630;2023-02-15T17:38:30;17.53;;;11.10;;
16228;SDS011;8222;51.462;12.630;2023-02-15T17:40:56;17.15;;;12.57;;
16228;SDS011;8222;51.462;12.630;2023-02-15T17:43:23;15.52;;;14.00;;
16228;SDS011;8222;51.462;12.630;2023-02-15T17:45:49;16.02;;;14.40;;
16228;SDS011;8222;51.462;12.630;2023-02-15T17:50:54;13.18;;;11.88;;
16228;SDS011;8222;51.462;12.630;2023-02-15T17:53:23;14.60;;;11.67;;
16228;SDS011;8222;51.462;12.630;2023-02-15T17:55:50;12.88;;;11.63;;
16228;SDS011;8222;51.462;12.630;2023-02-15T17:58:16;16.05;;;14.43;;
16228;SDS011;8222;51.462;12.630;2023-02-15T18:00:54;27.75;;;15.18;;
16228;SDS011;8222;51.462;12.630;2023-02-15T18:03:46;13.82;;;12.32;;
16228;SDS011;8222;51.462;12.630;2023-02-15T18:06:32;13.25;;;11.25;;
16228;SDS011;8222;51.462;12.630;2023-02-15T18:09:20;14.95;;;13.45;;
16228;SDS011;8222;51.462;12.630;2023-02-15T18:12:19;16.55;;;14.05;;
16228;SDS011;8222;51.462;12.630;2023-02-15T18:14:46;15.50;;;13.73;;
16228;SDS011;8222;51.462;12.630;2023-02-15T18:17:12;20.70;;;13.90;;